Argenta, Texas
Current Conditions -  °F | °C
As of 5:35 PM on Wednesday 22 Oct 2014 (Local Time) from KRBO Reporting Station
Heavy Rain Heavy Rain  
Wind Chill: 82°   Ceiling: Unl
Heat Index: 83°   Visibility: 10mi
Dew Point: 66°   Wind: 10mph
Humidity: 58%   Direction: 100°E
Pressure: 30.01"   Gusts: NA
Location:  28.0654°N, 97.7489°W
Report Text: KRBO 222235Z AUTO 10009KT 10SM +RA SCT032 28/19 A3001 RMK AO2 T02750187
Loading
Personal Weather Stations






























Interactive Weather Map
Tropical Storm Tracking
New forecast layout! Learn more

10-Day Weather Forecast

Advertisements
Track Severe Weather on mobile